Latest Weather Observations for Mardie

IDW60801

Issued at 11:02 am WST Saturday 6 February 2016 (issued every 30 minutes, with the page automatically refreshed every 10 minutes)

About weather observations | Map of weather stations | Latest weather observations for WA | Other Formats
Station Details ID: 005008 Name: MARDIE Lat: -21.19 Lon: 115.98 Height: 11.0 m
Data from the previous 72 hours. | See also: Recent months at Mardie
Date/Time
WST
Temp
°C
App
Temp
°C
Dew
Point
Rel
Hum
%
Delta-T
°C
Wind Press
QNH
hPa
Press
MSL
hPa
Rain
since 9 am
mm
Dir
 
Spd
km/h
Gust
km/h
Spd
kts
Gust
kts
06/11:00am 33.4 37.0 23.1 54 7.1 W 9 19 5 10 1008.5 1008.4 0.0
06/10:30am 33.6 37.4 22.7 53 7.5 W 7 13 4 7 1008.7 1008.6 0.0
06/10:00am 32.4 35.8 23.4 59 6.2 WNW 11 15 6 8 1008.8 1008.7 0.0
06/09:30am 31.9 35.8 22.9 59 6.2 W 7 13 4 7 1008.9 1008.8 0.0
06/09:00am 31.3 35.8 23.9 64 5.1 W 7 15 4 8 1008.9 1008.8 0.0
06/08:30am 30.4 35.0 24.1 69 4.4 W 7 11 4 6 1008.8 1008.7 0.0
06/08:00am 29.5 34.0 24.6 75 3.4 W 9 13 5 7 1008.5 1008.4 0.0
06/07:30am 29.0 34.9 26.8 88 1.6 WNW 9 13 5 7 1008.3 1008.2 0.0
06/07:00am 27.6 35.8 27.6 100 0.0 CALM 0 0 0 0 1008.1 1008.0 0.0
06/06:30am 26.8 33.7 26.8 100 0.0 WNW 4 9 2 5 1008.0 1007.9 0.0
06/06:00am 26.6 33.3 26.6 100 0.0 WNW 4 6 2 3 1007.4 1007.3 0.0
06/05:30am 26.9 32.9 26.9 100 0.0 NW 9 11 5 6 1007.1 1007.0 0.0
06/05:00am 27.2 32.8 25.4 90 1.3 N 6 9 3 5 1006.9 1006.8 0.0
06/04:30am 26.5 31.5 24.5 89 1.4 W 6 6 3 3 1006.6 1006.5 0.0
06/04:00am 27.7 33.7 24.3 82 2.4 CALM 0 0 0 0 1006.4 1006.3 0.0
06/03:30am 28.2 34.2 24.2 79 2.8 CALM 0 4 0 2 1006.5 1006.4 0.0
06/03:00am 28.5 33.3 24.5 79 2.8 W 7 11 4 6 1006.4 1006.3 0.0
06/02:30am 28.4 33.2 24.2 78 2.9 NW 6 9 3 5 1006.7 1006.6 0.0
06/02:00am 28.5 32.8 23.6 75 3.4 NW 7 11 4 6 1006.7 1006.6 0.0
06/01:30am 28.6 32.3 23.3 73 3.6 NW 9 17 5 9 1006.9 1006.8 0.0
06/01:00am 28.4 32.3 22.9 72 3.8 NW 7 9 4 5 1007.3 1007.2 0.0
06/12:30am 28.3 31.8 22.1 69 4.2 WNW 7 9 4 5 1007.6 1007.5 0.0
06/12:00am 28.8 32.3 22.1 67 4.5 WNW 7 11 4 6 1007.9 1007.8 0.0
 
Date/Time
WST
Temp
°C
App
Temp
°C
Dew
Point
Rel
Hum
%
Delta-T
°C
Wind Press
QNH
hPa
Press
MSL
hPa
Rain
since 9 am
mm
Dir
 
Spd
km/h
Gust
km/h
Spd
kts
Gust
kts
05/11:30pm 29.1 32.4 22.6 68 4.4 W 9 11 5 6 1008.1 1008.0 0.0
05/11:00pm 29.2 31.3 22.4 66 4.6 WSW 15 20 8 11 1008.4 1008.3 0.0
05/10:30pm 29.4 31.5 22.4 66 4.8 W 15 20 8 11 1008.4 1008.3 0.0
05/10:00pm 29.6 31.4 21.8 63 5.3 W 15 22 8 12 1008.1 1008.0 0.0
05/09:30pm 29.7 31.9 21.9 63 5.3 WNW 13 19 7 10 1008.0 1007.9 0.0
05/09:00pm 29.8 32.2 22.3 64 5.1 W 13 20 7 11 1007.6 1007.5 0.0
05/08:30pm 30.0 32.0 22.2 63 5.3 W 15 20 8 11 1007.3 1007.2 0.0
05/08:00pm 30.0 31.2 21.4 60 5.8 W 17 22 9 12 1006.9 1006.8 0.0
05/07:30pm 30.3 32.3 22.2 62 5.5 W 15 20 8 11 1006.4 1006.3 0.0
05/07:00pm 30.6 32.2 22.2 61 5.7 WNW 17 24 9 13 1006.1 1006.0 0.0
05/06:30pm 31.3 31.8 22.0 57 6.3 WNW 22 28 12 15 1005.8 1005.7 0.0
05/06:00pm 32.7 32.8 21.2 50 7.8 WNW 22 30 12 16 1005.4 1005.3 0.0
05/05:30pm 33.6 33.8 21.4 48 8.3 WNW 22 30 12 16 1005.2 1005.1 0.0
05/05:00pm 34.1 32.8 19.0 41 9.9 WNW 24 32 13 17 1005.1 1005.0 0.0
05/04:30pm 34.6 33.5 19.4 40 10.0 WNW 24 30 13 16 1005.1 1005.0 0.0
05/04:00pm 35.2 34.9 20.3 41 10.0 NW 22 33 12 18 1005.1 1005.0 0.0
05/03:30pm 35.9 34.4 18.5 36 11.4 WNW 24 30 13 16 1005.3 1005.2 0.0
05/03:00pm 36.6 34.6 18.2 34 12.1 WNW 26 32 14 17 1005.3 1005.2 0.0
05/02:30pm 36.2 34.6 19.2 37 11.3 WNW 26 35 14 19 1005.4 1005.3 0.0
05/02:00pm 37.4 36.1 19.8 35 11.8 WNW 26 35 14 19 1005.5 1005.4 0.0
05/01:30pm 35.8 35.6 21.3 43 9.9 WNW 24 33 13 18 1005.7 1005.6 0.0
05/01:00pm 36.1 35.7 22.3 45 9.5 WNW 28 37 15 20 1006.0 1005.9 0.0
05/12:55pm 37.0 37.0 21.6 41 10.5 WNW 24 37 13 20 1006.0 1005.9 0.0
05/12:30pm 38.2 38.0 14.7 24 14.7 ESE 9 19 5 10 1006.6 1006.5 0.0
05/12:00pm 37.6 37.2 14.2 25 14.6 ENE 9 20 5 11 1007.0 1006.9 0.0
05/11:30am 37.2 37.5 15.1 27 13.9 SSE 7 19 4 10 1007.5 1007.4 0.0
05/11:00am 37.0 36.3 15.5 28 13.6 SSE 13 22 7 12 1008.1 1008.0 0.0
05/10:30am 35.2 34.9 16.5 33 11.9 SSW 13 20 7 11 1008.7 1008.6 0.0
05/10:00am 34.5 35.3 18.1 37 10.7 SSW 11 19 6 10 1009.2 1009.1 0.0
05/09:30am 33.1 36.3 21.6 51 7.8 S 7 13 4 7 1009.3 1009.2 0.0
05/09:00am 31.4 35.8 23.5 63 5.5 W 6 11 3 6 1009.4 1009.3 0.0
05/08:30am 30.6 35.6 23.8 67 4.7 W 4 9 2 5 1009.5 1009.4 0.0
05/08:00am 29.4 36.0 25.2 78 3.0 CALM 0 6 0 3 1009.5 1009.4 0.0
05/07:30am 28.4 35.4 27.0 92 1.0 W 4 7 2 4 1009.6 1009.5 0.0
05/07:00am 27.6 35.8 27.6 100 0.0 CALM 0 0 0 0 1009.5 1009.4 0.0
05/06:30am 26.4 33.8 26.4 100 0.0 CALM 0 0 0 0 1009.1 1009.0 0.0
05/06:00am 26.3 33.6 26.3 100 0.0 CALM 0 0 0 0 1008.6 1008.5 0.0
05/05:30am 26.4 33.0 26.4 100 0.0 W 4 6 2 3 1008.3 1008.2 0.0
05/05:00am 26.7 33.1 26.7 100 0.0 W 6 7 3 4 1008.2 1008.1 0.0
05/04:30am 26.9 33.5 26.9 100 0.0 W 6 7 3 4 1008.1 1008.0 0.0
05/04:00am 27.1 33.5 26.6 97 0.4 W 6 7 3 4 1008.2 1008.1 0.0
05/03:30am 27.4 33.4 26.0 92 1.0 W 6 9 3 5 1008.2 1008.1 0.0
05/03:00am 27.4 33.2 25.2 88 1.5 W 4 6 2 3 1008.4 1008.3 0.0
05/02:30am 27.5 33.0 24.7 85 1.9 W 4 6 2 3 1008.6 1008.5 0.0
05/02:00am 27.6 32.8 24.8 85 2.0 W 6 9 3 5 1008.9 1008.8 0.0
05/01:30am 27.6 32.5 24.6 84 2.1 W 7 13 4 7 1009.1 1009.0 0.0
05/01:00am 27.6 32.0 25.0 86 1.8 WSW 11 17 6 9 1009.1 1009.0 0.0
05/12:30am 27.8 31.9 25.2 86 1.8 SW 13 20 7 11 1009.3 1009.2 0.0
05/12:00am 27.8 31.7 25.4 87 1.7 WSW 15 20 8 11 1009.4 1009.3 0.0
 
Date/Time
WST
Temp
°C
App
Temp
°C
Dew
Point
Rel
Hum
%
Delta-T
°C
Wind Press
QNH
hPa
Press
MSL
hPa
Rain
since 9 am
mm
Dir
 
Spd
km/h
Gust
km/h
Spd
kts
Gust
kts
04/11:30pm 27.9 33.0 24.9 84 2.1 W 7 9 4 5 1009.4 1009.3 0.0
04/11:00pm 28.2 33.3 24.6 81 2.5 W 6 7 3 4 1009.4 1009.3 0.0
04/10:30pm 28.3 33.1 24.5 80 2.6 W 7 9 4 5 1009.3 1009.2 0.0
04/10:00pm 28.5 32.9 24.5 79 2.8 W 9 15 5 8 1009.3 1009.2 0.0
04/09:30pm 28.5 32.7 24.7 80 2.7 W 11 17 6 9 1009.2 1009.1 0.0
04/09:00pm 28.8 33.8 24.8 79 2.8 W 7 11 4 6 1009.0 1008.9 0.0
04/08:30pm 29.2 33.6 24.5 76 3.3 W 9 15 5 8 1008.8 1008.7 0.0
04/08:00pm 29.5 33.7 22.5 66 4.8 NNW 4 7 2 4 1008.3 1008.2 0.0
04/07:30pm 29.4 33.4 22.1 65 4.9 NW 4 7 2 4 1007.8 1007.7 0.0
04/07:00pm 29.7 32.3 22.7 66 4.8 NW 13 19 7 10 1007.6 1007.5 0.0
04/06:30pm 30.5 32.0 21.3 58 6.2 NW 15 20 8 11 1007.3 1007.2 0.0
04/06:00pm 31.4 32.5 21.3 55 6.8 NW 17 26 9 14 1007.2 1007.1 0.0
04/05:30pm 32.0 32.4 19.9 48 8.0 NNW 17 24 9 13 1006.8 1006.7 0.0
04/05:00pm 32.8 32.8 19.7 46 8.7 NNW 19 33 10 18 1006.5 1006.4 0.0
04/04:30pm 34.0 33.2 18.1 39 10.3 NNW 19 32 10 17 1006.3 1006.2 0.0
04/04:00pm 34.0 33.2 18.1 39 10.3 N 19 33 10 18 1006.3 1006.2 0.0
04/03:30pm 34.7 33.6 18.7 38 10.5 N 22 33 12 18 1006.4 1006.3 0.0
04/03:00pm 34.4 33.7 19.6 41 9.8 N 22 33 12 18 1006.5 1006.4 0.0
04/02:30pm 34.0 33.3 19.6 42 9.5 N 22 32 12 17 1006.7 1006.6 0.0
04/02:00pm 35.7 34.1 18.3 35 11.4 N 24 33 13 18 1006.8 1006.7 0.0
04/01:30pm 35.6 34.7 18.2 35 11.3 N 20 33 11 18 1007.0 1006.9 0.0
04/01:00pm 36.1 35.6 17.7 33 12.0 N 17 26 9 14 1007.4 1007.3 0.0
04/12:30pm 37.3 35.2 14.6 26 14.2 E 19 35 10 19 1007.8 1007.7 0.0
04/12:00pm 36.5 33.9 13.9 26 13.9 ENE 20 28 11 15 1008.3 1008.2 0.0
04/11:30am 36.2 33.4 14.2 26 13.6 ENE 22 35 12 19 1008.7 1008.6 0.0
04/11:00am 36.4 34.0 14.4 27 13.7 E 20 33 11 18 1009.0 1008.9 0.0
04/10:30am 34.7 31.8 14.0 28 12.7 E 22 33 12 18 1009.4 1009.3 0.0
04/10:00am 35.1 32.2 13.9 28 13.0 E 22 33 12 18 1009.7 1009.6 0.0
04/09:30am 33.6 30.9 14.6 31 11.7 ESE 22 32 12 17 1010.1 1010.0 0.0
04/09:00am 32.7 31.3 16.9 38 10.0 ESE 20 37 11 20 1010.2 1010.1 0.0
04/08:30am 31.2 33.1 22.8 61 5.8 SSE 17 24 9 13 1010.2 1010.1 0.0
04/08:00am 29.5 32.8 23.9 72 3.9 SSE 13 17 7 9 1010.1 1010.0 0.0
04/07:30am 28.1 32.5 25.7 87 1.7 SSE 13 17 7 9 1010.1 1010.0 0.0
04/07:00am 27.2 33.3 27.0 99 0.1 SSE 9 11 5 6 1010.1 1010.0 0.0
04/06:30am 26.2 32.1 26.2 100 0.0 S 7 9 4 5 1009.9 1009.8 0.0
04/06:00am 25.9 31.6 25.9 100 0.0 S 7 9 4 5 1009.5 1009.4 0.0
04/05:30am 26.0 31.8 26.0 100 0.0 S 7 9 4 5 1009.1 1009.0 0.0
04/05:00am 26.1 31.9 26.1 100 0.0 W 7 9 4 5 1009.0 1008.9 0.0
04/04:30am 26.2 32.1 26.2 100 0.0 W 7 9 4 5 1008.8 1008.7 0.0
04/04:00am 26.3 32.0 25.6 96 0.5 W 6 6 3 3 1008.8 1008.7 0.0
04/03:30am 26.6 32.0 25.2 92 1.0 W 6 7 3 4 1008.7 1008.6 0.0
04/03:00am 27.0 33.0 24.3 85 1.9 CALM 0 0 0 0 1008.9 1008.8 0.0
04/02:30am 27.2 32.1 23.7 81 2.4 W 4 4 2 2 1008.8 1008.7 0.0
04/02:00am 27.3 32.7 23.3 79 2.7 CALM 0 0 0 0 1008.8 1008.7 0.0
04/01:30am 27.4 32.1 23.4 79 2.7 W 4 4 2 2 1009.0 1008.9 0.0
04/01:00am 27.4 32.2 24.1 82 2.3 W 6 9 3 5 1009.1 1009.0 0.0
04/12:30am 27.4 32.7 24.3 83 2.1 NNW 4 7 2 4 1009.2 1009.1 0.0
04/12:00am 27.4 33.0 24.3 83 2.1 NNW 2 4 1 2 1009.4 1009.3 0.0
 
Date/Time
WST
Temp
°C
App
Temp
°C
Dew
Point
Rel
Hum
%
Delta-T
°C
Wind Press
QNH
hPa
Press
MSL
hPa
Rain
since 9 am
mm
Dir
 
Spd
km/h
Gust
km/h
Spd
kts
Gust
kts
03/11:30pm 27.6 33.3 23.8 80 2.6 CALM 0 0 0 0 1009.6 1009.5 0.0
03/11:00pm 27.7 33.4 23.7 79 2.8 CALM 0 0 0 0 1009.6 1009.5 0.0
03/10:30pm 27.8 33.0 23.6 78 2.9 NNW 2 6 1 3 1009.6 1009.5 0.0
03/10:00pm 27.6 32.7 23.4 78 2.9 NNW 2 6 1 3 1009.3 1009.2 0.0
03/09:30pm 27.9 32.3 23.5 77 3.0 N 6 9 3 5 1009.1 1009.0 0.0
03/09:00pm 27.8 31.8 22.7 74 3.5 N 6 9 3 5 1009.0 1008.9 0.0
03/08:30pm 27.9 31.6 22.6 73 3.6 N 7 9 4 5 1008.7 1008.6 0.0
03/08:00pm 27.9 31.7 22.4 72 3.7 NNW 6 9 3 5 1008.4 1008.3 0.0
03/07:30pm 28.1 31.7 22.3 70 3.9 N 7 13 4 7 1007.9 1007.8 0.0
03/07:00pm 28.3 31.1 22.3 70 4.1 NNW 11 17 6 9 1007.5 1007.4 0.0
03/06:30pm 28.9 31.4 22.4 68 4.4 NNW 13 17 7 9 1007.4 1007.3 0.0
03/06:00pm 29.7 32.7 21.9 63 5.3 NNW 9 17 5 9 1007.2 1007.1 0.0
03/05:30pm 30.1 31.8 22.3 63 5.3 NNW 17 24 9 13 1006.7 1006.6 0.0
03/05:00pm 30.7 32.6 22.0 59 5.9 NNW 15 24 8 13 1006.4 1006.3 0.0
03/04:30pm 30.9 32.3 21.9 58 6.1 NNW 17 24 9 13 1006.3 1006.2 0.0
03/04:00pm 31.2 32.6 21.9 57 6.3 NNW 17 24 9 13 1006.3 1006.2 0.0
03/03:30pm 30.7 32.2 22.0 59 5.9 NNW 17 26 9 14 1006.5 1006.4 0.0
03/03:00pm 31.4 32.6 22.1 57 6.3 N 19 28 10 15 1006.6 1006.5 0.0
03/02:30pm 31.4 32.4 21.8 56 6.5 N 19 28 10 15 1006.8 1006.7 0.0
03/02:00pm 32.5 35.1 22.6 56 6.8 NNW 13 20 7 11 1007.0 1006.9 0.0
03/01:30pm 30.2 33.2 23.4 67 4.7 N 13 17 7 9 1007.2 1007.1 0.0
03/01:00pm 32.0 33.8 21.8 54 6.9 N 15 22 8 12 1007.4 1007.3 0.0
03/12:30pm 31.5 34.1 23.3 61 5.7 NNW 15 26 8 14 1007.6 1007.5 0.0
03/12:00pm 30.9 33.2 22.8 62 5.6 N 15 24 8 13 1007.8 1007.7 0.0
03/11:30am 34.2 35.0 19.1 41 9.9 SE 13 22 7 12 1007.9 1007.8 0.0

Other Formats:

Comma delimited format used in spreadsheet applications
http://www.bom.gov.au/fwo/IDW60801/IDW60801.94306.axf

JavaScript Object Notation format (JSON) in row-major order
http://www.bom.gov.au/fwo/IDW60801/IDW60801.94306.json